Hauptseite
METAR-TAF:

METAR-TAF

Flughäfen :

Flughafen Talara

Talara, Peru

Breite: 04-34S, Länge: 081-15W, Höhe: 85 m

Beobachtung

Neuester Wetterbericht von vor 38 Minuten, um 19:00 UTC
Temperatur 23°C
Luftfeuchtigkeit 69%
Luftdruck 1014 hPa
Sichtweite 10 km oder mehr
keine Wolken unter 1500 m und keine Kumulonimbus oder Gewitterwolken

METAR: SPYL 251900Z /////KT CAVOK 23/17 Q1014 RMK BIRD HAZARD RWY 17/35 PP000

Zeit: 14:38 (19:38 UTC)

Prognose

Neuester Wetterbericht von vor 2 Stunden und 38 Minuten, um 17:00 UTC
Gültige Prognose vom 25 um 18 UTC bis 26 um 18 UTC
Wind 15 kt aus Süd
Sichtweite 10 km oder mehr
keine Wolken unter 1500 m und keine Kumulonimbus oder Gewitterwolken

TAF: SPYL 251700Z 2518/2618 18015KT CAVOK TX27/2519Z TN13/2611Z

Wetterbeobachtungen und Prognosen von mehr als 4000 Flughäfen (METAR und TAF Bericht).

Die verfügbaren Stationen werden durch gelbe und rote Markierungen auf der Karte dargestellt.

Führen Sie die Maus auf sie, um den Namen der Station zu sehen.

Darauf klicken, um die Beobachtung von Wetterbeobachtungen und Prognosen zu sehen.

Um die Karte zu ändern : klicken Sie auf den grünen Tasten mit einem schwarzen Kreuz Zum Vergrößern, auf den grünen Button mit einem Gedankenstrich zu verkleinern, oder auf die grünen Pfeile für benachbarte Karten.


METAR-TAF: